< < Back
Terminal Aerodrome Forecast


Current Version              Previous Versions:   1  2  3  4  5  6  7  8  9  

Terminal Aerodrome Forecast

232
FTUS42 KCHS 231100
TAFCHS
TAF
KCHS 231126Z 2312/2412 28005KT P6SM SCT006
     FM231400 36010KT P6SM SKC
     FM231800 33008KT P6SM SKC
     FM240000 VRB03KT P6SM SKC
     FM240600 02004KT P6SM SKC=

Latest METAR

611
SAUS80 KWBC 240400 RRA
MTRCHS
METAR KCHS 240356Z 05003KT 10SM CLR 17/11 A2994 RMK AO2 SLP136
T01720111


USA.gov is the U.S. government's official web portal to all federal, state and local government web resources and services.